sensor_id;sensor_type;location;lat;lon;timestamp;pressure;altitude;pressure_sealevel;temperature;humidity
48029;BME280;33808;37.368;127.108;2023-02-10T07:09:44;100390.28;;;28.46;22.96
48029;BME280;33808;37.368;127.108;2023-02-10T07:12:34;100393.78;;;28.46;22.84
48029;BME280;33808;37.368;127.108;2023-02-10T07:16:02;100399.00;;;28.48;23.37
48029;BME280;33808;37.368;127.108;2023-02-10T07:19:11;100394.13;;;28.60;23.18
48029;BME280;33808;37.368;127.108;2023-02-10T07:22:00;100402.16;;;28.68;23.03
48029;BME280;33808;37.368;127.108;2023-02-10T07:25:29;100384.78;;;28.79;23.06
48029;BME280;33808;37.368;127.108;2023-02-10T07:28:57;100390.09;;;28.87;22.94
48029;BME280;33808;37.368;127.108;2023-02-10T07:32:21;100386.34;;;28.96;22.84
48029;BME280;33808;37.368;127.108;2023-02-10T07:35:50;100387.31;;;29.03;22.84
48029;BME280;33808;37.368;127.108;2023-02-10T07:39:18;100391.16;;;29.09;22.78
48029;BME280;33808;37.368;127.108;2023-02-10T07:42:47;100390.66;;;29.14;22.85
48029;BME280;33808;37.368;127.108;2023-02-10T07:46:15;100398.19;;;29.18;22.82
48029;BME280;33808;37.368;127.108;2023-02-10T07:49:44;100395.50;;;29.18;22.71
48029;BME280;33808;37.368;127.108;2023-02-10T07:53:16;100402.56;;;29.19;22.84
48029;BME280;33808;37.368;127.108;2023-02-10T07:56:45;100405.25;;;29.19;22.99
48029;BME280;33808;37.368;127.108;2023-02-10T08:00:14;100415.84;;;29.21;22.76
48029;BME280;33808;37.368;127.108;2023-02-10T08:03:03;100410.81;;;29.18;22.76
48029;BME280;33808;37.368;127.108;2023-02-10T08:05:35;100417.03;;;29.18;22.87
48029;BME280;33808;37.368;127.108;2023-02-10T08:08:26;100413.50;;;29.18;22.95
48029;BME280;33808;37.368;127.108;2023-02-10T08:11:35;100414.00;;;29.13;22.76
48029;BME280;33808;37.368;127.108;2023-02-10T08:14:24;100418.53;;;29.13;23.01
48029;BME280;33808;37.368;127.108;2023-02-10T08:17:52;100428.66;;;29.10;22.98
48029;BME280;33808;37.368;127.108;2023-02-10T08:21:01;100423.59;;;29.07;23.12
48029;BME280;33808;37.368;127.108;2023-02-10T08:23:33;100441.28;;;29.02;23.09
48029;BME280;33808;37.368;127.108;2023-02-10T08:26:07;100443.00;;;28.95;23.17
48029;BME280;33808;37.368;127.108;2023-02-10T08:28:39;100446.41;;;28.88;23.30
48029;BME280;33808;37.368;127.108;2023-02-10T08:31:09;100451.47;;;28.83;23.31
48029;BME280;33808;37.368;127.108;2023-02-10T08:33:39;100447.47;;;28.79;23.41
48029;BME280;33808;37.368;127.108;2023-02-10T08:36:15;100464.63;;;28.78;23.43
48029;BME280;33808;37.368;127.108;2023-02-10T08:38:45;100465.84;;;28.67;23.45
48029;BME280;33808;37.368;127.108;2023-02-10T08:41:15;100470.56;;;28.65;23.46
48029;BME280;33808;37.368;127.108;2023-02-10T08:43:45;100483.50;;;28.62;23.57
48029;BME280;33808;37.368;127.108;2023-02-10T08:46:15;100483.00;;;28.58;23.60
48029;BME280;33808;37.368;127.108;2023-02-10T08:48:45;100481.84;;;28.52;23.75
48029;BME280;33808;37.368;127.108;2023-02-10T08:51:15;100484.66;;;28.51;23.69
48029;BME280;33808;37.368;127.108;2023-02-10T08:53:45;100486.53;;;28.42;23.90
48029;BME280;33808;37.368;127.108;2023-02-10T08:56:17;100501.66;;;28.43;23.72
48029;BME280;33808;37.368;127.108;2023-02-10T08:58:47;100503.19;;;28.38;23.82
48029;BME280;33808;37.368;127.108;2023-02-10T09:01:22;100503.84;;;28.31;23.85
48029;BME280;33808;37.368;127.108;2023-02-10T09:03:57;100509.25;;;28.23;24.01
48029;BME280;33808;37.368;127.108;2023-02-10T09:06:36;100507.06;;;28.19;24.02
48029;BME280;33808;37.368;127.108;2023-02-10T09:09:17;100503.88;;;28.15;23.89
48029;BME280;33808;37.368;127.108;2023-02-10T09:11:53;100510.75;;;28.09;24.01
48029;BME280;33808;37.368;127.108;2023-02-10T09:14:23;100513.97;;;28.05;24.06
48029;BME280;33808;37.368;127.108;2023-02-10T09:16:53;100514.28;;;28.02;24.04
48029;BME280;33808;37.368;127.108;2023-02-10T09:19:22;100522.69;;;27.99;24.24
48029;BME280;33808;37.368;127.108;2023-02-10T09:21:52;100529.38;;;27.94;24.08
48029;BME280;33808;37.368;127.108;2023-02-10T09:24:24;100522.13;;;27.87;24.51
48029;BME280;33808;37.368;127.108;2023-02-10T09:26:53;100530.69;;;27.82;24.27
48029;BME280;33808;37.368;127.108;2023-02-10T09:29:23;100534.38;;;27.73;24.67
48029;BME280;33808;37.368;127.108;2023-02-10T09:31:52;100536.53;;;27.61;24.43
48029;BME280;33808;37.368;127.108;2023-02-10T09:34:22;100526.63;;;27.53;24.97
48029;BME280;33808;37.368;127.108;2023-02-10T09:36:52;100530.44;;;27.43;24.87
48029;BME280;33808;37.368;127.108;2023-02-10T09:39:26;100528.06;;;27.31;25.01
48029;BME280;33808;37.368;127.108;2023-02-10T09:42:03;100534.28;;;27.32;24.72
48029;BME280;33808;37.368;127.108;2023-02-10T09:44:43;100531.78;;;27.30;25.09
48029;BME280;33808;37.368;127.108;2023-02-10T09:53:10;100537.88;;;27.14;25.04
48029;BME280;33808;37.368;127.108;2023-02-10T09:55:48;100530.47;;;27.08;25.17
48029;BME280;33808;37.368;127.108;2023-02-10T09:58:32;100542.34;;;27.06;25.34
48029;BME280;33808;37.368;127.108;2023-02-10T10:01:36;100538.00;;;27.05;25.39
48029;BME280;33808;37.368;127.108;2023-02-10T10:04:16;100539.13;;;26.94;25.55
48029;BME280;33808;37.368;127.108;2023-02-10T10:06:51;100545.00;;;26.89;25.82
48029;BME280;33808;37.368;127.108;2023-02-10T10:09:40;100544.28;;;26.87;25.78
48029;BME280;33808;37.368;127.108;2023-02-10T10:12:15;100542.75;;;26.85;25.72
48029;BME280;33808;37.368;127.108;2023-02-10T10:14:46;100544.47;;;26.86;25.71
48029;BME280;33808;37.368;127.108;2023-02-10T10:23:30;100556.84;;;26.87;25.60
48029;BME280;33808;37.368;127.108;2023-02-10T10:32:14;100555.66;;;26.81;25.68
48029;BME280;33808;37.368;127.108;2023-02-10T10:35:16;100556.97;;;26.77;25.60
48029;BME280;33808;37.368;127.108;2023-02-10T10:38:43;100564.50;;;26.73;25.76
48029;BME280;33808;37.368;127.108;2023-02-10T10:42:18;100569.00;;;26.73;25.88
48029;BME280;33808;37.368;127.108;2023-02-10T10:45:46;100571.69;;;26.73;25.88
48029;BME280;33808;37.368;127.108;2023-02-10T10:49:14;100578.03;;;26.72;25.66
48029;BME280;33808;37.368;127.108;2023-02-10T10:52:46;100586.22;;;26.70;25.67
48029;BME280;33808;37.368;127.108;2023-02-10T11:02:36;100589.25;;;26.67;25.94
48029;BME280;33808;37.368;127.108;2023-02-10T11:12:39;100579.25;;;26.59;27.18
48029;BME280;33808;37.368;127.108;2023-02-10T11:16:11;100590.13;;;26.76;26.25
48029;BME280;33808;37.368;127.108;2023-02-10T11:19:38;100582.94;;;26.76;25.94
48029;BME280;33808;37.368;127.108;2023-02-10T11:23:14;100588.47;;;26.75;25.95
48029;BME280;33808;37.368;127.108;2023-02-10T11:26:41;100586.16;;;26.80;26.32
48029;BME280;33808;37.368;127.108;2023-02-10T11:33:40;100582.31;;;26.83;26.16
48029;BME280;33808;37.368;127.108;2023-02-10T11:36:50;100578.94;;;26.80;26.41
48029;BME280;33808;37.368;127.108;2023-02-10T11:39:43;100584.56;;;26.69;26.62
48029;BME280;33808;37.368;127.108;2023-02-10T11:44:57;100638.63;;;26.91;nan
48029;BME280;33808;37.368;127.108;2023-02-10T11:48:22;100643.00;;;26.66;nan
48029;BME280;33808;37.368;127.108;2023-02-10T11:51:54;100639.53;;;26.55;nan
48029;BME280;33808;37.368;127.108;2023-02-10T11:55:02;100636.09;;;26.63;nan
48029;BME280;33808;37.368;127.108;2023-02-10T11:57:48;100645.22;;;26.52;nan
48029;BME280;33808;37.368;127.108;2023-02-10T12:00:54;100633.19;;;26.38;nan
48029;BME280;33808;37.368;127.108;2023-02-10T12:17:26;100701.28;;;26.64;nan
48029;BME280;33808;37.368;127.108;2023-02-10T12:24:22;100720.97;;;26.45;nan
48029;BME280;33808;37.368;127.108;2023-02-10T12:28:06;100712.34;;;26.33;nan
48029;BME280;33808;37.368;127.108;2023-02-10T12:31:51;100735.97;;;26.37;nan
48029;BME280;33808;37.368;127.108;2023-02-10T12:34:53;100737.81;;;26.37;nan
48029;BME280;33808;37.368;127.108;2023-02-10T12:38:03;100733.66;;;26.52;nan
48029;BME280;33808;37.368;127.108;2023-02-10T12:44:31;100738.81;;;26.64;nan
48029;BME280;33808;37.368;127.108;2023-02-10T12:50:26;100761.41;;;26.51;nan
48029;BME280;33808;37.368;127.108;2023-02-10T12:54:05;100695.94;;;26.18;nan
48029;BME280;33808;37.368;127.108;2023-02-10T12:57:13;100743.38;;;26.71;nan
48029;BME280;33808;37.368;127.108;2023-02-10T13:00:45;100750.41;;;26.72;nan
48029;BME280;33808;37.368;127.108;2023-02-10T13:11:07;100783.59;;;26.71;nan
48029;BME280;33808;37.368;127.108;2023-02-10T13:14:31;100774.34;;;26.56;nan
48029;BME280;33808;37.368;127.108;2023-02-10T13:18:00;100775.69;;;26.70;nan
48029;BME280;33808;37.368;127.108;2023-02-10T13:21:30;100779.59;;;26.75;nan
48029;BME280;33808;37.368;127.108;2023-02-10T13:31:37;100790.09;;;26.69;nan
48029;BME280;33808;37.368;127.108;2023-02-10T13:35:00;100792.31;;;26.73;nan
48029;BME280;33808;37.368;127.108;2023-02-10T13:38:30;100794.31;;;26.71;nan
48029;BME280;33808;37.368;127.108;2023-02-10T13:47:31;100792.88;;;26.77;nan
48029;BME280;33808;37.368;127.108;2023-02-10T13:50:27;100788.97;;;26.71;nan
48029;BME280;33808;37.368;127.108;2023-02-10T13:53:44;100791.50;;;26.73;nan
48029;BME280;33808;37.368;127.108;2023-02-10T13:57:26;100788.03;;;26.63;nan
48029;BME280;33808;37.368;127.108;2023-02-10T14:00:17;100783.88;;;26.68;nan
48029;BME280;33808;37.368;127.108;2023-02-10T14:03:44;100773.78;;;26.62;nan
48029;BME280;33808;37.368;127.108;2023-02-10T14:07:15;100790.81;;;26.71;nan
48029;BME280;33808;37.368;127.108;2023-02-10T14:13:44;100788.13;;;26.71;nan
48029;BME280;33808;37.368;127.108;2023-02-10T14:20:24;100776.72;;;26.59;nan
48029;BME280;33808;37.368;127.108;2023-02-10T14:23:55;100774.13;;;26.49;nan
48029;BME280;33808;37.368;127.108;2023-02-10T14:27:36;100773.09;;;26.60;nan
48029;BME280;33808;37.368;127.108;2023-02-10T14:31:15;100785.06;;;26.66;nan
48029;BME280;33808;37.368;127.108;2023-02-10T14:34:55;100786.50;;;26.60;nan
48029;BME280;33808;37.368;127.108;2023-02-10T14:38:27;100790.22;;;26.49;nan
48029;BME280;33808;37.368;127.108;2023-02-10T14:41:34;100771.56;;;26.30;nan
48029;BME280;33808;37.368;127.108;2023-02-10T14:45:16;100763.59;;;26.20;nan
48029;BME280;33808;37.368;127.108;2023-02-10T14:48:36;100787.56;;;26.21;nan
48029;BME280;33808;37.368;127.108;2023-02-10T14:52:05;100791.06;;;26.22;nan
48029;BME280;33808;37.368;127.108;2023-02-10T14:55:42;100788.84;;;26.17;nan
48029;BME280;33808;37.368;127.108;2023-02-10T14:59:18;100798.59;;;26.09;nan
48029;BME280;33808;37.368;127.108;2023-02-10T15:02:46;100799.91;;;26.04;nan
48029;BME280;33808;37.368;127.108;2023-02-10T15:06:17;100784.81;;;26.03;nan
48029;BME280;33808;37.368;127.108;2023-02-10T15:09:49;100783.44;;;25.99;nan
48029;BME280;33808;37.368;127.108;2023-02-10T15:13:19;100775.00;;;25.94;nan
48029;BME280;33808;37.368;127.108;2023-02-10T15:16:46;100774.84;;;25.96;nan
48029;BME280;33808;37.368;127.108;2023-02-10T15:23:24;100768.81;;;25.94;nan
48029;BME280;33808;37.368;127.108;2023-02-10T15:26:53;100766.69;;;25.88;nan
48029;BME280;33808;37.368;127.108;2023-02-10T15:30:27;100767.66;;;25.87;nan
48029;BME280;33808;37.368;127.108;2023-02-10T15:34:00;100746.41;;;25.85;nan
48029;BME280;33808;37.368;127.108;2023-02-10T15:37:27;100735.84;;;25.83;nan
48029;BME280;33808;37.368;127.108;2023-02-10T15:40:23;100733.63;;;25.79;nan
48029;BME280;33808;37.368;127.108;2023-02-10T15:43:28;100744.88;;;25.82;nan
48029;BME280;33808;37.368;127.108;2023-02-10T15:46:37;100737.81;;;25.81;nan
48029;BME280;33808;37.368;127.108;2023-02-10T15:50:08;100720.94;;;25.81;nan
48029;BME280;33808;37.368;127.108;2023-02-10T15:53:38;100722.38;;;25.75;nan
48029;BME280;33808;37.368;127.108;2023-02-10T15:57:13;100709.00;;;25.75;nan
48029;BME280;33808;37.368;127.108;2023-02-10T16:00:45;100725.72;;;25.77;nan
48029;BME280;33808;37.368;127.108;2023-02-10T16:03:48;100717.31;;;25.72;nan
48029;BME280;33808;37.368;127.108;2023-02-10T16:06:19;100691.88;;;25.58;nan
48029;BME280;33808;37.368;127.108;2023-02-10T16:08:50;100719.84;;;25.74;nan
48029;BME280;33808;37.368;127.108;2023-02-10T16:11:39;100724.34;;;25.73;nan
48029;BME280;33808;37.368;127.108;2023-02-10T16:15:11;100712.50;;;25.76;nan
48029;BME280;33808;37.368;127.108;2023-02-10T16:18:22;100707.75;;;25.70;nan
48029;BME280;33808;37.368;127.108;2023-02-10T16:20:53;100712.41;;;25.68;nan
48029;BME280;33808;37.368;127.108;2023-02-10T16:23:22;100699.31;;;25.64;nan
48029;BME280;33808;37.368;127.108;2023-02-10T16:26:20;100688.47;;;25.66;nan
48029;BME280;33808;37.368;127.108;2023-02-10T16:29:46;100675.38;;;25.63;nan
48029;BME280;33808;37.368;127.108;2023-02-10T16:33:15;100674.00;;;25.59;nan
48029;BME280;33808;37.368;127.108;2023-02-10T16:36:43;100665.69;;;25.52;nan
48029;BME280;33808;37.368;127.108;2023-02-10T16:40:17;100663.56;;;25.56;nan
48029;BME280;33808;37.368;127.108;2023-02-10T16:43:41;100659.09;;;25.56;nan
48029;BME280;33808;37.368;127.108;2023-02-10T16:47:14;100662.59;;;25.57;nan
48029;BME280;33808;37.368;127.108;2023-02-10T16:53:28;100670.63;;;25.57;nan
48029;BME280;33808;37.368;127.108;2023-02-10T16:56:24;100673.72;;;25.52;nan
48029;BME280;33808;37.368;127.108;2023-02-10T16:59:53;100664.16;;;25.50;nan
48029;BME280;33808;37.368;127.108;2023-02-10T17:03:21;100664.16;;;25.50;nan
48029;BME280;33808;37.368;127.108;2023-02-10T17:06:51;100668.38;;;25.52;nan
48029;BME280;33808;37.368;127.108;2023-02-10T17:10:23;100664.16;;;25.50;nan
48029;BME280;33808;37.368;127.108;2023-02-10T17:13:50;100677.47;;;25.41;nan
48029;BME280;33808;37.368;127.108;2023-02-10T17:16:59;100693.19;;;25.44;nan
48029;BME280;33808;37.368;127.108;2023-02-10T17:19:29;100685.03;;;25.46;nan
48029;BME280;33808;37.368;127.108;2023-02-10T17:22:01;100686.41;;;25.50;nan
48029;BME280;33808;37.368;127.108;2023-02-10T17:24:31;100691.63;;;25.52;nan
48029;BME280;33808;37.368;127.108;2023-02-10T17:27:00;100693.88;;;25.46;nan
48029;BME280;33808;37.368;127.108;2023-02-10T17:29:30;100691.94;;;25.49;nan
48029;BME280;33808;37.368;127.108;2023-02-10T17:32:00;100684.31;;;25.44;nan
48029;BME280;33808;37.368;127.108;2023-02-10T17:34:29;100689.00;;;25.42;nan
48029;BME280;33808;37.368;127.108;2023-02-10T17:37:04;100692.91;;;25.48;nan
48029;BME280;33808;37.368;127.108;2023-02-10T17:39:38;100700.66;;;25.51;nan
48029;BME280;33808;37.368;127.108;2023-02-10T17:42:07;100701.34;;;25.53;nan
48029;BME280;33808;37.368;127.108;2023-02-10T17:44:57;100703.31;;;25.51;nan
48029;BME280;33808;37.368;127.108;2023-02-10T17:48:25;100699.09;;;25.48;nan
48029;BME280;33808;37.368;127.108;2023-02-10T17:51:55;100694.06;;;25.45;nan
48029;BME280;33808;37.368;127.108;2023-02-10T17:55:23;100694.19;;;25.43;nan
48029;BME280;33808;37.368;127.108;2023-02-10T17:58:52;100692.34;;;25.44;nan
48029;BME280;33808;37.368;127.108;2023-02-10T18:02:20;100686.31;;;25.42;nan
48029;BME280;33808;37.368;127.108;2023-02-10T18:05:52;100690.13;;;25.39;nan
48029;BME280;33808;37.368;127.108;2023-02-10T18:09:18;100685.06;;;25.36;nan
48029;BME280;33808;37.368;127.108;2023-02-10T18:12:46;100686.03;;;25.35;nan
48029;BME280;33808;37.368;127.108;2023-02-10T18:16:15;100687.88;;;25.35;nan
48029;BME280;33808;37.368;127.108;2023-02-10T18:19:44;100687.59;;;25.38;nan
48029;BME280;33808;37.368;127.108;2023-02-10T18:23:12;100692.09;;;25.37;nan
48029;BME280;33808;37.368;127.108;2023-02-10T18:26:41;100701.81;;;25.38;nan
48029;BME280;33808;37.368;127.108;2023-02-10T18:30:10;100694.94;;;25.36;nan
48029;BME280;33808;37.368;127.108;2023-02-10T18:33:39;100705.47;;;25.37;nan
48029;BME280;33808;37.368;127.108;2023-02-10T18:37:07;100703.94;;;25.35;nan
48029;BME280;33808;37.368;127.108;2023-02-10T18:40:16;100712.94;;;25.34;nan
48029;BME280;33808;37.368;127.108;2023-02-10T18:43:05;100706.75;;;25.33;nan
48029;BME280;33808;37.368;127.108;2023-02-10T18:46:35;100704.75;;;25.35;nan
48029;BME280;33808;37.368;127.108;2023-02-10T18:50:03;100708.13;;;25.37;nan
48029;BME280;33808;37.368;127.108;2023-02-10T18:53:33;100706.75;;;25.33;nan
48029;BME280;33808;37.368;127.108;2023-02-10T18:57:01;100707.91;;;25.31;nan
48029;BME280;33808;37.368;127.108;2023-02-10T19:00:30;100712.53;;;25.29;nan
48029;BME280;33808;37.368;127.108;2023-02-10T19:03:59;100708.44;;;25.24;nan
48029;BME280;33808;37.368;127.108;2023-02-10T19:07:27;100708.59;;;25.23;nan
48029;BME280;33808;37.368;127.108;2023-02-10T19:11:03;100724.22;;;25.18;nan
48029;BME280;33808;37.368;127.108;2023-02-10T19:14:30;100713.81;;;25.24;nan
48029;BME280;33808;37.368;127.108;2023-02-10T19:37:55;100727.16;;;25.24;nan
48029;BME280;33808;37.368;127.108;2023-02-10T19:41:27;100721.81;;;25.15;nan
48029;BME280;33808;37.368;127.108;2023-02-10T19:44:56;100715.78;;;25.13;nan
48029;BME280;33808;37.368;127.108;2023-02-10T19:48:05;100738.28;;;25.20;nan
48029;BME280;33808;37.368;127.108;2023-02-10T19:50:35;100724.22;;;25.18;nan
48029;BME280;33808;37.368;127.108;2023-02-10T19:53:24;100730.53;;;25.17;nan
48029;BME280;33808;37.368;127.108;2023-02-10T19:56:53;100730.69;;;25.15;nan
48029;BME280;33808;37.368;127.108;2023-02-10T20:00:21;100718.59;;;25.11;nan
48029;BME280;33808;37.368;127.108;2023-02-10T20:03:51;100723.94;;;25.21;nan
48029;BME280;33808;37.368;127.108;2023-02-10T20:07:19;100722.50;;;25.17;nan
48029;BME280;33808;37.368;127.108;2023-02-10T20:10:48;100729.56;;;25.18;nan
48029;BME280;33808;37.368;127.108;2023-02-10T20:14:16;100715.78;;;25.13;nan
48029;BME280;33808;37.368;127.108;2023-02-10T20:17:45;100727.75;;;25.08;nan
48029;BME280;33808;37.368;127.108;2023-02-10T20:21:13;100735.19;;;25.15;nan
48029;BME280;33808;37.368;127.108;2023-02-10T20:24:23;100735.19;;;25.15;nan
48029;BME280;33808;37.368;127.108;2023-02-10T20:26:52;100738.59;;;25.07;nan
48029;BME280;33808;37.368;127.108;2023-02-10T20:29:22;100741.41;;;25.05;nan
48029;BME280;33808;37.368;127.108;2023-02-10T20:32:11;100751.69;;;25.10;nan
48029;BME280;33808;37.368;127.108;2023-02-10T20:35:40;100749.56;;;25.14;nan
48029;BME280;33808;37.368;127.108;2023-02-10T20:39:09;100748.56;;;25.15;nan
48029;BME280;33808;37.368;127.108;2023-02-10T20:42:37;100758.56;;;25.13;nan
48029;BME280;33808;37.368;127.108;2023-02-10T20:46:06;100760.81;;;25.07;nan
48029;BME280;33808;37.368;127.108;2023-02-10T20:49:34;100775.88;;;25.08;nan
48029;BME280;33808;37.368;127.108;2023-02-10T20:53:03;100766.72;;;25.11;nan
48029;BME280;33808;37.368;127.108;2023-02-10T20:56:31;100774.88;;;25.09;nan
48029;BME280;33808;37.368;127.108;2023-02-10T21:00:00;100781.34;;;25.07;nan
48029;BME280;33808;37.368;127.108;2023-02-10T21:03:12;100773.34;;;25.07;nan
48029;BME280;33808;37.368;127.108;2023-02-10T21:06:41;100772.19;;;25.09;nan
48029;BME280;33808;37.368;127.108;2023-02-10T21:10:09;100775.59;;;25.12;nan
48029;BME280;33808;37.368;127.108;2023-02-10T21:13:38;100790.22;;;25.07;nan
48029;BME280;33808;37.368;127.108;2023-02-10T21:17:06;100795.44;;;25.09;nan
48029;BME280;33808;37.368;127.108;2023-02-10T21:20:35;100804.84;;;25.03;nan
48029;BME280;33808;37.368;127.108;2023-02-10T21:24:04;100808.09;;;24.97;nan
48029;BME280;33808;37.368;127.108;2023-02-10T21:27:36;100808.38;;;25.04;nan
48029;BME280;33808;37.368;127.108;2023-02-10T21:31:11;100771.53;;;24.78;nan
48029;BME280;33808;37.368;127.108;2023-02-10T21:34:40;100789.81;;;25.02;nan
48029;BME280;33808;37.368;127.108;2023-02-10T21:48:27;100771.50;;;24.98;nan
48029;BME280;33808;37.368;127.108;2023-02-10T21:51:16;100778.84;;;24.96;nan
48029;BME280;33808;37.368;127.108;2023-02-10T21:54:45;100775.19;;;24.97;nan
48029;BME280;33808;37.368;127.108;2023-02-10T21:57:54;100783.88;;;24.89;nan
48029;BME280;33808;37.368;127.108;2023-02-10T22:00:23;100744.22;;;24.55;nan
48029;BME280;33808;37.368;127.108;2023-02-10T22:03:12;100760.84;;;24.78;nan
48029;BME280;33808;37.368;127.108;2023-02-10T22:06:42;100794.88;;;24.96;nan
48029;BME280;33808;37.368;127.108;2023-02-10T22:10:10;100807.97;;;24.99;nan
48029;BME280;33808;37.368;127.108;2023-02-10T22:13:41;100809.78;;;24.98;nan
48029;BME280;33808;37.368;127.108;2023-02-10T22:17:09;100811.63;;;24.98;nan
48029;BME280;33808;37.368;127.108;2023-02-10T22:20:38;100785.28;;;24.83;nan
48029;BME280;33808;37.368;127.108;2023-02-10T22:24:08;100806.41;;;24.96;nan
48029;BME280;33808;37.368;127.108;2023-02-10T22:27:36;100819.91;;;24.95;nan
48029;BME280;33808;37.368;127.108;2023-02-10T22:31:08;100818.22;;;24.94;nan
48029;BME280;33808;37.368;127.108;2023-02-10T22:34:36;100823.84;;;24.91;nan
48029;BME280;33808;37.368;127.108;2023-02-10T22:37:45;100835.38;;;24.91;nan
48029;BME280;33808;37.368;127.108;2023-02-10T22:40:34;100838.03;;;24.91;nan
48029;BME280;33808;37.368;127.108;2023-02-10T22:44:04;100808.94;;;24.78;nan
48029;BME280;33808;37.368;127.108;2023-02-10T22:47:12;100826.13;;;24.95;nan
48029;BME280;33808;37.368;127.108;2023-02-10T22:50:02;100833.84;;;24.98;nan
48029;BME280;33808;37.368;127.108;2023-02-10T22:53:31;100820.19;;;24.92;nan
48029;BME280;33808;37.368;127.108;2023-02-10T22:57:00;100845.78;;;25.04;nan
48029;BME280;33808;37.368;127.108;2023-02-10T23:00:29;100828.06;;;24.83;nan
48029;BME280;33808;37.368;127.108;2023-02-10T23:03:58;100866.63;;;25.00;nan
48029;BME280;33808;37.368;127.108;2023-02-10T23:07:27;100842.56;;;24.91;nan
48029;BME280;33808;37.368;127.108;2023-02-10T23:10:55;100868.63;;;25.08;nan
48029;BME280;33808;37.368;127.108;2023-02-10T23:14:24;100869.59;;;25.07;nan
48029;BME280;33808;37.368;127.108;2023-02-10T23:17:53;100862.84;;;25.13;nan
48029;BME280;33808;37.368;127.108;2023-02-10T23:21:23;100866.06;;;25.06;nan
48029;BME280;33808;37.368;127.108;2023-02-10T23:24:13;100875.94;;;25.16;nan
48029;BME280;33808;37.368;127.108;2023-02-10T23:27:41;100875.06;;;25.15;nan
48029;BME280;33808;37.368;127.108;2023-02-10T23:31:11;100878.59;;;25.16;nan
48029;BME280;33808;37.368;127.108;2023-02-10T23:34:20;100876.78;;;25.16;nan
48029;BME280;33808;37.368;127.108;2023-02-10T23:36:50;100882.25;;;25.15;nan
48029;BME280;33808;37.368;127.108;2023-02-10T23:39:39;100880.72;;;25.22;nan
48029;BME280;33808;37.368;127.108;2023-02-10T23:43:08;100880.72;;;25.22;nan
48029;BME280;33808;37.368;127.108;2023-02-10T23:46:37;100880.84;;;25.20;nan
48029;BME280;33808;37.368;127.108;2023-02-10T23:50:06;100881.03;;;25.29;nan
48029;BME280;33808;37.368;127.108;2023-02-10T23:53:35;100887.63;;;25.24;nan
48029;BME280;33808;37.368;127.108;2023-02-10T23:56:44;100884.94;;;25.24;nan
48029;BME280;33808;37.368;127.108;2023-02-10T23:59:33;100890.88;;;25.28;nan
